Time;durP1;ratioP1;P1;durP2;ratioP2;P2;SDS_P1;SDS_P2;PMS_P1;PMS_P2;Temp;Humidity;BMP_temperature;BMP_pressure;BME280_temperature;BME280_humidity;BME280_pressure;Samples;Min_cycle;Max_cycle;Signal;HPM_P1;HPM_P2
2022/10/31 00:01:59;;;;;;;6.30;3.30;;;;;;;15.95;46.42;95113.72;4165276;28;20127;-59
2022/10/31 00:04:01;;;;;;;6.65;3.83;;;;;;;15.97;46.39;95107.25;4178670;28;20063;-61
2022/10/31 00:06:03;;;;;;;5.03;3.00;;;;;;;15.94;46.55;95109.47;4167008;28;20076;-62
2022/10/31 00:08:04;;;;;;;6.75;3.15;;;;;;;15.94;46.55;95107.63;4174887;28;20041;-58
2022/10/31 00:10:07;;;;;;;7.75;3.78;;;;;;;15.98;46.48;95113.34;4174411;28;20080;-60
2022/10/31 00:12:08;;;;;;;9.40;3.65;;;;;;;16.01;46.45;95120.94;4175424;28;20052;-59
2022/10/31 00:14:10;;;;;;;8.70;3.88;;;;;;;15.95;46.57;95111.91;4178087;28;20159;-60
2022/10/31 00:16:16;;;;;;;5.45;3.60;;;;;;;15.82;46.94;95114.34;4177188;28;20438;-59
2022/10/31 00:18:18;;;;;;;6.75;3.25;;;;;;;15.75;47.39;95108.16;4178574;28;20065;-60
2022/10/31 00:20:19;;;;;;;8.52;3.90;;;;;;;15.74;47.42;95111.78;4177472;28;20049;-59
2022/10/31 00:22:21;;;;;;;6.60;3.80;;;;;;;15.77;47.41;95114.91;4171747;28;20076;-59
2022/10/31 00:24:23;;;;;;;7.13;3.60;;;;;;;15.69;47.61;95108.84;4171848;28;20049;-59
2022/10/31 00:26:27;;;;;;;9.23;3.95;;;;;;;15.67;47.38;95116.94;4176983;28;20675;-58
2022/10/31 00:28:30;;;;;;;9.32;3.60;;;;;;;15.59;48.06;95109.09;4175128;28;20049;-58
2022/10/31 00:30:32;;;;;;;7.70;4.00;;;;;;;15.60;47.75;95099.38;4169238;28;20614;-59
2022/10/31 00:32:34;;;;;;;5.70;3.28;;;;;;;15.67;47.81;95103.75;4178427;28;20598;-60
2022/10/31 00:34:35;;;;;;;5.30;3.25;;;;;;;15.71;47.82;95104.22;4164818;28;20140;-58
2022/10/31 00:36:37;;;;;;;5.95;3.30;;;;;;;15.76;47.81;95107.16;4173706;28;20095;-59
2022/10/31 00:38:39;;;;;;;5.70;3.50;;;;;;;15.76;47.69;95100.03;4178138;28;20627;-58
2022/10/31 00:40:41;;;;;;;8.18;3.03;;;;;;;15.79;47.58;95098.88;4172753;28;20057;-58
2022/10/31 00:42:42;;;;;;;7.57;3.30;;;;;;;15.80;47.77;95095.22;4168880;28;20049;-59
2022/10/31 00:44:44;;;;;;;8.98;3.42;;;;;;;15.80;47.48;95100.50;4177903;28;20131;-58
2022/10/31 00:46:45;;;;;;;5.20;2.83;;;;;;;15.73;48.02;95097.78;4180384;28;20049;-59
2022/10/31 00:48:47;;;;;;;7.57;3.10;;;;;;;15.64;48.09;95090.06;4180963;28;20079;-57
2022/10/31 00:50:49;;;;;;;6.88;2.85;;;;;;;15.68;48.12;95094.84;4167214;28;20083;-60
2022/10/31 00:52:50;;;;;;;7.53;3.53;;;;;;;15.69;48.13;95093.00;4181274;28;20049;-60
2022/10/31 00:54:52;;;;;;;8.10;3.40;;;;;;;15.68;48.25;95092.19;4180778;28;20141;-58
2022/10/31 00:56:54;;;;;;;7.95;3.20;;;;;;;15.73;48.14;95094.31;4180505;28;20478;-59
2022/10/31 00:58:55;;;;;;;5.43;3.00;;;;;;;15.66;48.18;95098.63;4181119;28;20136;-59
2022/10/31 01:00:57;;;;;;;5.32;3.05;;;;;;;15.67;48.24;95092.38;4179764;28;20131;-58
2022/10/31 01:02:59;;;;;;;4.95;2.78;;;;;;;15.68;48.29;95096.63;4179385;28;20052;-60
2022/10/31 01:05:01;;;;;;;9.95;3.10;;;;;;;15.71;48.28;95102.41;4180132;28;20052;-59
2022/10/31 01:07:03;;;;;;;6.38;2.95;;;;;;;15.68;48.33;95101.91;4175660;28;20591;-60
2022/10/31 01:09:04;;;;;;;6.78;3.20;;;;;;;15.68;48.39;95101.91;4172897;28;20431;-59
2022/10/31 01:11:16;;;;;;;8.52;3.53;;;;;;;15.70;48.26;95103.41;4168931;28;20161;-59
2022/10/31 01:13:18;;;;;;;6.47;3.55;;;;;;;15.70;48.32;95107.84;4168037;28;20076;-58
2022/10/31 01:15:21;;;;;;;5.97;3.10;;;;;;;15.68;48.34;95104.56;4179662;28;20556;-58
2022/10/31 01:17:23;;;;;;;6.07;2.85;;;;;;;15.69;48.43;95108.84;4179352;28;20128;-59
2022/10/31 01:19:24;;;;;;;6.07;2.90;;;;;;;15.69;48.31;95107.03;4180845;28;20421;-59
2022/10/31 01:21:28;;;;;;;6.72;2.92;;;;;;;15.58;48.63;95118.03;4179072;28;20048;-58
2022/10/31 01:23:30;;;;;;;8.45;3.08;;;;;;;15.45;48.91;95118.66;4179328;28;20159;-59
2022/10/31 01:25:32;;;;;;;6.35;3.30;;;;;;;15.45;49.24;95123.13;4180387;28;20048;-59
2022/10/31 01:27:33;;;;;;;8.90;3.78;;;;;;;15.45;49.40;95121.28;4179937;28;20131;-57
2022/10/31 01:29:35;;;;;;;5.82;3.33;;;;;;;15.48;49.34;95115.63;4177982;28;20091;-57
2022/10/31 01:31:38;;;;;;;8.48;3.53;;;;;;;15.50;49.33;95111.00;4163146;28;20080;-59
2022/10/31 01:33:40;;;;;;;7.82;3.83;;;;;;;15.53;49.44;95115.09;4163427;28;20084;-59
2022/10/31 01:35:42;;;;;;;8.70;3.88;;;;;;;15.53;49.48;95112.44;4172181;28;20144;-59
2022/10/31 01:37:44;;;;;;;6.63;3.85;;;;;;;15.54;49.64;95116.75;4166110;28;20149;-59
2022/10/31 01:39:45;;;;;;;5.88;3.35;;;;;;;15.56;49.59;95110.28;4163871;28;20592;-59
2022/10/31 01:41:49;;;;;;;7.05;4.00;;;;;;;15.57;49.67;95117.22;4162487;28;20111;-60
2022/10/31 01:43:52;;;;;;;;;;;;;;;15.55;49.87;95113.94;4169276;28;20049;-59
2022/10/31 01:45:54;;;;;;;6.80;4.18;;;;;;;15.59;49.66;95119.66;4170637;28;19924;-59
2022/10/31 01:47:56;;;;;;;10.13;3.55;;;;;;;15.62;49.72;95114.03;4174495;28;20124;-58
2022/10/31 01:50:01;;;;;;;7.30;3.80;;;;;;;15.61;50.00;95120.31;4176278;28;20056;-58
2022/10/31 01:52:25;;;;;;;7.13;4.03;;;;;;;15.64;49.96;95121.75;4167906;28;20132;-58
2022/10/31 01:54:30;;;;;;;6.38;4.20;;;;;;;15.68;49.85;95125.69;4165808;28;20080;-59
2022/10/31 01:56:32;;;;;;;8.88;4.65;;;;;;;15.68;50.13;95121.25;4166680;28;20099;-59
2022/10/31 01:58:34;;;;;;;7.13;4.00;;;;;;;15.69;50.05;95124.69;4178858;28;20033;-59
2022/10/31 02:00:36;;;;;;;9.50;4.60;;;;;;;15.69;50.13;95122.06;4167023;28;20075;-59
2022/10/31 02:02:38;;;;;;;8.05;4.28;;;;;;;15.66;50.33;95125.03;4176278;28;20057;-59
2022/10/31 02:04:41;;;;;;;8.38;4.53;;;;;;;15.60;50.61;95112.59;4180102;28;20110;-57
2022/10/31 02:06:53;;;;;;;7.55;4.30;;;;;;;15.61;50.54;95112.38;4178292;28;20072;-57
2022/10/31 02:08:57;;;;;;;7.22;4.75;;;;;;;15.64;50.74;95116.47;4178962;28;20056;-58
2022/10/31 02:11:01;;;;;;;10.38;4.97;;;;;;;15.69;50.77;95112.31;4182120;28;21316;-61
2022/10/31 02:13:04;;;;;;;10.43;4.80;;;;;;;15.65;50.86;95105.75;4168668;28;20546;-60
2022/10/31 02:15:07;;;;;;;13.05;5.32;;;;;;;15.62;50.86;95100.03;4178388;28;20485;-58
2022/10/31 02:17:09;;;;;;;8.88;5.53;;;;;;;15.67;50.77;95109.03;4169114;28;20055;-58
2022/10/31 02:19:14;;;;;;;10.85;5.05;;;;;;;15.65;50.93;95105.75;4170943;28;20173;-57
2022/10/31 02:21:53;;;;;;;9.32;5.25;;;;;;;15.64;51.06;95109.41;4183583;28;20147;-59
2022/10/31 02:24:27;;;;;;;9.07;5.22;;;;;;;15.53;51.50;95109.81;4170240;28;20104;-58
2022/10/31 02:26:31;;;;;;;9.32;4.68;;;;;;;15.59;51.27;95113.56;4164741;28;20060;-57
2022/10/31 02:29:06;;;;;;;9.00;5.03;;;;;;;15.57;51.35;95122.50;4162830;28;20072;-59
2022/10/31 02:31:46;;;;;;;9.63;4.97;;;;;;;15.31;52.00;95122.88;4167107;28;20461;-63
2022/10/31 02:33:52;;;;;;;9.25;4.55;;;;;;;15.16;52.37;95132.56;4154984;28;20083;-64
2022/10/31 02:36:05;;;;;;;10.52;5.45;;;;;;;15.19;52.64;95136.69;4191861;28;20432;-63
2022/10/31 02:38:22;;;;;;;7.35;5.10;;;;;;;15.10;52.64;95128.84;4169475;28;20137;-64
2022/10/31 02:40:52;;;;;;;7.50;4.88;;;;;;;15.13;52.87;95133.75;4165998;28;20045;-62
2022/10/31 02:43:02;;;;;;;9.25;5.05;;;;;;;15.05;53.25;95131.16;4166907;28;20493;-63
2022/10/31 02:45:17;;;;;;;9.20;5.60;;;;;;;15.03;53.25;95133.16;4192256;28;20098;-64
2022/10/31 02:47:22;;;;;;;11.43;5.65;;;;;;;15.02;53.37;95142.06;4164888;28;20135;-63
2022/10/31 02:49:42;;;;;;;11.65;5.25;;;;;;;15.01;53.64;95143.06;4177628;28;20136;-64
2022/10/31 02:51:45;;;;;;;8.98;5.30;;;;;;;14.94;53.62;95145.56;4178114;28;20361;-64
2022/10/31 02:53:46;;;;;;;11.93;5.85;;;;;;;15.00;53.73;95137.97;4166981;28;20049;-63
2022/10/31 02:56:19;;;;;;;13.88;5.90;;;;;;;15.10;53.19;95144.66;4162493;28;20087;-63
2022/10/31 02:58:22;;;;;;;8.80;5.63;;;;;;;15.22;53.18;95145.06;4172806;28;20128;-63
2022/10/31 03:00:24;;;;;;;10.25;5.50;;;;;;;15.29;52.81;95139.88;4177362;28;20391;-63
2022/10/31 03:02:35;;;;;;;12.68;5.57;;;;;;;15.27;52.92;95144.53;4165797;28;20608;-63
2022/10/31 03:05:11;;;;;;;14.45;6.07;;;;;;;15.28;52.90;95149.63;4179070;28;20541;-63
2022/10/31 03:07:39;;;;;;;15.15;5.57;;;;;;;15.31;53.01;95148.44;4169922;28;20141;-64
2022/10/31 03:09:56;;;;;;;8.82;5.43;;;;;;;15.35;52.77;95152.38;4162966;28;20087;-65
2022/10/31 03:12:04;;;;;;;8.77;5.63;;;;;;;15.39;52.55;95155.50;4161506;28;20689;-65
2022/10/31 03:14:20;;;;;;;10.88;5.90;;;;;;;15.41;52.60;95149.03;4162575;28;20054;-64
2022/10/31 03:16:32;;;;;;;10.27;5.78;;;;;;;15.35;52.78;95147.91;4166087;28;20049;-63
2022/10/31 03:18:44;;;;;;;8.43;5.25;;;;;;;15.29;52.95;95140.72;4175395;28;20130;-63
2022/10/31 03:20:50;;;;;;;10.57;5.78;;;;;;;15.27;53.00;95141.88;4167998;28;20135;-63
2022/10/31 03:22:52;;;;;;;12.10;5.90;;;;;;;15.27;53.13;95149.81;4169861;28;20111;-63
2022/10/31 03:24:54;;;;;;;9.55;5.43;;;;;;;15.22;53.34;95152.16;4167626;28;20140;-64
2022/10/31 03:26:58;;;;;;;9.80;5.53;;;;;;;15.20;53.06;95149.69;4167892;28;20144;-64
2022/10/31 03:29:03;;;;;;;9.38;5.53;;;;;;;15.22;53.08;95152.16;4176816;28;20107;-63
2022/10/31 03:31:06;;;;;;;10.48;5.38;;;;;;;15.22;52.91;95149.53;4176406;28;20076;-65
2022/10/31 03:33:11;;;;;;;12.52;5.40;;;;;;;15.27;52.91;95160.34;4177086;28;20136;-64
2022/10/31 03:35:15;;;;;;;12.75;6.13;;;;;;;15.29;52.96;95161.00;4169142;28;20145;-64
2022/10/31 03:37:19;;;;;;;7.75;5.32;;;;;;;15.28;52.74;95154.91;4163300;28;20528;-63
2022/10/31 03:39:21;;;;;;;9.88;5.30;;;;;;;15.25;52.93;95165.00;4175018;28;20080;-63
2022/10/31 03:41:25;;;;;;;8.13;5.25;;;;;;;15.24;53.30;95160.72;4176965;28;20055;-63
2022/10/31 03:43:30;;;;;;;10.45;5.65;;;;;;;15.25;52.98;95170.28;4177171;28;20139;-63
2022/10/31 03:45:32;;;;;;;13.32;5.38;;;;;;;15.23;53.15;95166.97;4187128;28;20515;-63
2022/10/31 03:47:36;;;;;;;7.88;5.40;;;;;;;15.25;53.41;95167.63;4161689;28;20045;-66
2022/10/31 03:49:38;;;;;;;9.65;5.55;;;;;;;15.05;53.55;95168.09;4171731;28;20128;-64
2022/10/31 03:51:48;;;;;;;14.00;6.18;;;;;;;14.89;54.04;95179.59;4164239;28;20128;-63
2022/10/31 03:54:04;;;;;;;14.15;6.30;;;;;;;14.65;54.68;95170.00;4177134;28;20053;-64
2022/10/31 03:56:26;;;;;;;16.80;6.20;;;;;;;14.50;55.38;95179.59;4177068;28;20052;-63
2022/10/31 03:58:41;;;;;;;12.35;6.80;;;;;;;14.40;55.79;95179.78;4158698;28;20157;-62
2022/10/31 04:00:44;;;;;;;14.50;6.15;;;;;;;14.26;55.80;95183.13;4176393;28;20081;-64
2022/10/31 04:02:55;;;;;;;12.60;6.37;;;;;;;14.10;56.92;95186.63;4161392;28;20063;-64
2022/10/31 04:04:59;;;;;;;13.80;6.70;;;;;;;14.00;56.89;95188.63;4172712;28;20053;-63
2022/10/31 04:07:01;;;;;;;11.57;7.18;;;;;;;13.75;57.47;95188.69;4162310;28;20077;-63
2022/10/31 04:09:05;;;;;;;28.55;8.05;;;;;;;13.53;58.23;95190.19;4172380;28;20049;-63
2022/10/31 04:11:08;;;;;;;13.30;7.38;;;;;;;13.41;58.76;95188.88;4176224;28;20076;-66
2022/10/31 04:13:13;;;;;;;12.63;7.70;;;;;;;13.28;59.11;95191.94;4173804;28;20151;-64
2022/10/31 04:15:15;;;;;;;12.73;6.78;;;;;;;13.43;59.19;95189.53;4172808;28;20064;-64
2022/10/31 04:17:19;;;;;;;14.68;7.85;;;;;;;13.52;58.82;95194.59;4167127;28;20045;-64
2022/10/31 04:19:20;;;;;;;15.57;7.40;;;;;;;13.54;58.76;95194.44;4165550;28;20073;-63
2022/10/31 04:21:30;;;;;;;13.50;7.65;;;;;;;13.57;58.53;95190.66;4174554;28;20096;-64
2022/10/31 04:23:32;;;;;;;12.88;7.45;;;;;;;13.59;58.42;95189.50;4173197;28;20080;-62
2022/10/31 04:25:34;;;;;;;12.68;7.10;;;;;;;13.62;58.22;95193.63;4168431;28;20153;-66
2022/10/31 04:27:35;;;;;;;13.40;7.05;;;;;;;13.48;58.63;95192.47;4177102;28;20084;-64
2022/10/31 04:29:37;;;;;;;15.32;7.90;;;;;;;13.42;58.72;95193.97;4180793;28;20083;-63
2022/10/31 04:31:39;;;;;;;12.60;7.35;;;;;;;13.38;58.63;95192.66;4174196;28;20473;-65
2022/10/31 04:33:41;;;;;;;16.13;7.68;;;;;;;13.37;59.17;95193.63;4174229;28;20135;-64
2022/10/31 04:35:42;;;;;;;11.43;7.18;;;;;;;13.39;58.88;95193.47;4179941;28;20044;-62
2022/10/31 04:37:44;;;;;;;19.98;8.07;;;;;;;13.41;58.76;95192.31;4177976;28;20057;-63
2022/10/31 04:39:45;;;;;;;13.48;7.60;;;;;;;13.30;59.12;95201.34;4168013;28;20145;-63
2022/10/31 04:41:47;;;;;;;14.15;8.20;;;;;;;13.29;59.56;95193.63;4177525;28;20471;-64
2022/10/31 04:43:49;;;;;;;15.25;7.95;;;;;;;13.17;59.61;95192.28;4167203;28;20077;-62
2022/10/31 04:45:52;;;;;;;13.90;8.02;;;;;;;13.22;59.47;95198.69;4172530;28;20144;-64
2022/10/31 04:47:53;;;;;;;16.13;8.80;;;;;;;13.35;59.12;95194.78;4168649;28;20058;-64
2022/10/31 04:49:55;;;;;;;14.07;8.25;;;;;;;13.41;59.01;95202.03;4177566;28;20447;-67
2022/10/31 04:51:57;;;;;;;17.27;8.60;;;;;;;13.48;58.93;95197.72;4162804;28;20063;-65
2022/10/31 04:53:58;;;;;;;13.73;7.47;;;;;;;13.61;58.31;95203.31;4163568;28;20046;-64
2022/10/31 04:56:00;;;;;;;14.93;8.20;;;;;;;13.61;58.34;95205.13;4163466;28;20079;-63
2022/10/31 04:58:02;;;;;;;21.30;9.20;;;;;;;13.45;58.69;95214.69;4180356;28;20049;-62
2022/10/31 05:00:05;;;;;;;19.38;9.43;;;;;;;13.45;58.90;95206.78;4180241;28;20045;-62
2022/10/31 05:02:07;;;;;;;17.77;9.07;;;;;;;13.49;58.86;95215.19;4180232;28;20175;-64
2022/10/31 05:04:08;;;;;;;17.63;8.63;;;;;;;13.55;58.69;95208.44;4168252;28;20054;-65
2022/10/31 05:06:10;;;;;;;13.68;8.75;;;;;;;13.66;58.27;95221.28;4164173;28;20073;-63
2022/10/31 05:08:12;;;;;;;18.20;8.68;;;;;;;13.71;58.28;95214.50;4172322;28;20076;-63
2022/10/31 05:10:16;;;;;;;14.10;9.52;;;;;;;13.72;58.02;95225.84;4181008;28;20512;-63
2022/10/31 05:12:17;;;;;;;15.95;9.10;;;;;;;13.71;58.09;95229.50;4167332;28;20459;-66
2022/10/31 05:14:19;;;;;;;13.93;9.55;;;;;;;13.56;58.85;95229.31;4164791;28;20049;-66
2022/10/31 05:16:21;;;;;;;19.42;10.40;;;;;;;13.46;58.83;95223.41;4169955;28;20045;-65
2022/10/31 05:18:23;;;;;;;25.40;10.63;;;;;;;13.41;59.29;95228.34;4169978;28;20083;-59
2022/10/31 05:20:28;;;;;;;19.52;11.13;;;;;;;13.56;59.10;95226.69;4164360;28;20053;-57
2022/10/31 05:22:29;;;;;;;17.65;9.43;;;;;;;13.72;58.92;95226.69;4178403;28;20091;-58
2022/10/31 05:24:31;;;;;;;19.80;9.93;;;;;;;13.85;58.31;95231.47;4165510;28;20132;-59
2022/10/31 05:26:32;;;;;;;13.75;9.57;;;;;;;14.00;57.66;95228.13;4174247;28;20135;-59
2022/10/31 05:28:34;;;;;;;16.40;9.80;;;;;;;14.11;57.53;95230.41;4180741;28;20513;-64
2022/10/31 05:30:36;;;;;;;23.92;10.43;;;;;;;14.24;57.18;95224.63;4178162;28;20248;-66
2022/10/31 05:32:43;;;;;;;16.95;10.07;;;;;;;14.31;56.75;95226.44;4178273;28;20044;-64
2022/10/31 05:34:44;;;;;;;23.42;13.00;;;;;;;14.29;56.73;95235.50;4170161;28;20091;-65
2022/10/31 05:36:46;;;;;;;23.65;12.30;;;;;;;14.22;57.11;95231.88;4177122;28;20044;-64
2022/10/31 05:38:48;;;;;;;26.08;13.30;;;;;;;14.19;57.02;95240.94;4166644;28;20136;-68
2022/10/31 05:40:49;;;;;;;24.98;12.35;;;;;;;13.79;58.32;95237.41;4170696;28;20140;-66
2022/10/31 05:42:52;;;;;;;19.20;11.27;;;;;;;13.69;58.49;95247.25;4180653;28;20070;-66
2022/10/31 05:44:54;;;;;;;25.87;10.83;;;;;;;13.75;58.81;95246.63;4179852;28;20049;-63
2022/10/31 05:46:55;;;;;;;20.83;10.20;;;;;;;13.71;58.95;95240.03;4176055;28;20053;-67
2022/10/31 05:48:57;;;;;;;22.00;10.90;;;;;;;13.52;59.05;95249.06;4164112;28;20073;-63
2022/10/31 05:51:03;;;;;;;24.08;11.32;;;;;;;13.59;59.03;95243.97;4174557;28;20071;-66
2022/10/31 05:53:05;;;;;;;19.50;10.70;;;;;;;13.62;59.15;95241.03;4180301;28;20107;-66
2022/10/31 05:55:07;;;;;;;24.08;11.35;;;;;;;13.68;59.24;95243.81;4175745;28;20629;-64
2022/10/31 05:57:09;;;;;;;13.68;9.98;;;;;;;13.86;58.70;95248.09;4171307;28;20077;-66
2022/10/31 05:59:10;;;;;;;24.67;11.25;;;;;;;14.05;58.42;95253.00;4179731;28;20081;-65
2022/10/31 06:01:12;;;;;;;28.35;12.63;;;;;;;14.22;57.51;95256.44;4177611;28;20598;-64
2022/10/31 06:03:14;;;;;;;29.08;14.00;;;;;;;14.35;57.33;95255.91;4180181;28;20052;-66
2022/10/31 06:05:16;;;;;;;23.70;12.82;;;;;;;14.50;56.65;95264.78;4170244;28;20142;-66
2022/10/31 06:07:18;;;;;;;30.48;11.85;;;;;;;14.61;56.54;95268.88;4176026;28;20049;-64
2022/10/31 06:09:20;;;;;;;16.50;11.73;;;;;;;14.71;55.92;95264.25;4178791;28;20522;-63
2022/10/31 06:11:21;;;;;;;19.15;11.02;;;;;;;14.81;55.72;95268.47;4179631;28;20091;-64
2022/10/31 06:13:23;;;;;;;17.77;11.02;;;;;;;14.85;55.73;95269.78;4179671;28;20057;-62
2022/10/31 06:15:25;;;;;;;21.58;11.27;;;;;;;14.91;55.20;95264.66;4178965;28;20138;-65
2022/10/31 06:17:26;;;;;;;17.08;11.02;;;;;;;14.96;55.35;95272.03;4170836;28;20045;-65
2022/10/31 06:19:28;;;;;;;20.80;10.98;;;;;;;15.01;55.18;95269.69;4167965;28;20041;-67
2022/10/31 06:21:29;;;;;;;18.55;11.13;;;;;;;14.94;55.09;95280.13;4178896;28;20080;-60
2022/10/31 06:23:31;;;;;;;19.40;11.35;;;;;;;14.93;55.35;95280.31;4179628;28;20091;-58
2022/10/31 06:25:33;;;;;;;18.73;11.20;;;;;;;14.98;55.66;95282.44;4177501;28;20052;-60
2022/10/31 06:27:35;;;;;;;23.20;11.35;;;;;;;15.09;55.63;95282.84;4167282;28;20087;-63
2022/10/31 06:29:36;;;;;;;22.02;10.73;;;;;;;15.09;54.86;95282.84;4179171;28;20133;-59
2022/10/31 06:31:38;;;;;;;17.67;11.55;;;;;;;15.09;55.02;95288.13;4178608;28;20144;-58
2022/10/31 06:33:43;;;;;;;19.70;10.73;;;;;;;15.03;54.94;95288.00;4164764;28;20136;-60
2022/10/31 06:35:46;;;;;;;22.58;12.30;;;;;;;15.03;55.37;95294.09;4172144;28;20130;-62
2022/10/31 06:37:54;;;;;;;21.40;12.02;;;;;;;15.15;55.11;95294.56;4163961;28;20505;-59
2022/10/31 06:39:56;;;;;;;23.55;11.63;;;;;;;15.24;54.64;95295.34;4162910;28;20080;-59
2022/10/31 06:41:57;;;;;;;21.85;11.90;;;;;;;15.23;54.74;95291.03;4165092;28;20144;-59
2022/10/31 06:43:59;;;;;;;20.05;12.20;;;;;;;15.18;54.90;95296.00;4177822;28;20132;-59
2022/10/31 06:46:08;;;;;;;22.02;12.18;;;;;;;15.15;55.12;95302.47;4172775;28;20045;-61
2022/10/31 06:48:10;;;;;;;18.67;11.77;;;;;;;15.19;55.03;95297.69;4165815;28;20054;-60
2022/10/31 06:50:18;;;;;;;17.35;11.10;;;;;;;15.31;54.96;95296.28;4177768;28;20505;-59
2022/10/31 06:52:19;;;;;;;21.95;13.10;;;;;;;15.38;54.79;95302.53;4170568;28;20083;-61
2022/10/31 06:54:21;;;;;;;20.88;12.43;;;;;;;15.40;54.87;95292.59;4162893;28;20136;-60
2022/10/31 06:56:23;;;;;;;18.63;12.57;;;;;;;15.46;54.51;95299.00;4175662;28;20087;-60
2022/10/31 06:58:25;;;;;;;19.00;12.63;;;;;;;15.52;54.42;95293.84;4168820;28;20044;-57
2022/10/31 07:00:28;;;;;;;23.67;12.55;;;;;;;15.62;54.31;95295.44;4168975;28;20128;-57
2022/10/31 07:02:30;;;;;;;;;;;;;;;15.54;54.01;95294.47;4176439;28;20059;-59
2022/10/31 07:04:31;;;;;;;18.88;12.43;;;;;;;15.49;54.76;95298.66;4175231;28;19927;-60
2022/10/31 07:06:33;;;;;;;20.77;13.23;;;;;;;15.48;54.54;95297.00;4178055;28;20059;-60
2022/10/31 07:08:35;;;;;;;25.10;13.48;;;;;;;15.56;54.32;95300.41;4179062;28;20139;-60
2022/10/31 07:10:38;;;;;;;21.05;13.32;;;;;;;15.73;54.16;95300.34;4165072;28;20056;-60
2022/10/31 07:12:41;;;;;;;22.55;12.82;;;;;;;15.89;53.95;95302.84;4166227;28;20059;-61
2022/10/31 07:14:43;;;;;;;24.13;13.38;;;;;;;16.03;53.32;95305.75;4179014;28;20160;-63
2022/10/31 07:16:49;;;;;;;21.70;13.32;;;;;;;15.91;53.12;95300.84;4173141;28;20077;-60
2022/10/31 07:18:51;;;;;;;22.20;13.30;;;;;;;15.95;53.38;95301.31;4178903;28;20083;-60
2022/10/31 07:20:53;;;;;;;22.20;12.82;;;;;;;16.06;53.22;95294.81;4174595;28;20155;-59
2022/10/31 07:22:54;;;;;;;22.48;14.05;;;;;;;16.00;53.20;95295.50;4168808;28;20143;-59
2022/10/31 07:24:56;;;;;;;21.63;13.02;;;;;;;16.12;53.00;95294.09;4178968;28;20087;-59
2022/10/31 07:26:58;;;;;;;19.30;13.93;;;;;;;16.29;52.68;95282.38;4177362;28;20143;-59
2022/10/31 07:29:04;;;;;;;29.45;13.75;;;;;;;16.46;52.40;95285.66;4178968;28;20044;-58
2022/10/31 07:31:06;;;;;;;19.73;14.15;;;;;;;16.52;52.10;95284.94;4177725;28;20056;-60
2022/10/31 07:33:08;;;;;;;20.02;14.65;;;;;;;16.34;52.76;95276.53;4168150;28;20132;-60
2022/10/31 07:35:12;;;;;;;26.17;15.60;;;;;;;16.22;53.00;95285.88;4174712;28;20060;-61
2022/10/31 07:37:14;;;;;;;24.30;14.98;;;;;;;16.30;53.11;95281.34;4163226;28;20498;-59
2022/10/31 07:39:15;;;;;;;26.38;14.90;;;;;;;16.21;52.99;95285.06;4162993;28;20077;-61
2022/10/31 07:41:17;;;;;;;30.15;15.13;;;;;;;16.15;53.31;95286.63;4165848;28;20151;-58
2022/10/31 07:43:19;;;;;;;22.98;14.45;;;;;;;15.97;53.77;95284.28;4163910;28;20140;-59
2022/10/31 07:45:21;;;;;;;27.40;16.00;;;;;;;16.07;53.92;95278.78;4169336;28;20045;-58
2022/10/31 07:47:22;;;;;;;21.15;14.52;;;;;;;16.18;53.45;95283.63;4177326;28;20100;-59
2022/10/31 07:49:25;;;;;;;25.80;15.27;;;;;;;16.43;53.28;95282.56;4177328;28;20081;-58
2022/10/31 07:51:27;;;;;;;24.10;14.40;;;;;;;16.35;52.96;95279.00;4177604;28;20045;-59
2022/10/31 07:53:28;;;;;;;26.98;15.55;;;;;;;16.26;52.98;95280.09;4178849;28;20424;-59
2022/10/31 07:55:30;;;;;;;28.08;15.45;;;;;;;16.47;52.89;95268.78;4169584;28;20124;-60
2022/10/31 07:57:32;;;;;;;23.20;14.52;;;;;;;16.55;52.36;95276.63;4178854;28;20055;-61
2022/10/31 07:59:35;;;;;;;35.43;14.97;;;;;;;16.68;52.19;95278.66;4180215;28;20110;-59
2022/10/31 08:01:37;;;;;;;28.10;15.32;;;;;;;16.81;51.83;95272.75;4173897;28;20282;-59
2022/10/31 08:03:38;;;;;;;25.17;15.07;;;;;;;16.86;51.83;95280.94;4174779;28;20152;-59
2022/10/31 08:05:45;;;;;;;22.75;14.10;;;;;;;17.04;51.32;95282.41;4176192;28;20128;-62
2022/10/31 08:07:47;;;;;;;21.92;14.00;;;;;;;17.24;51.07;95278.16;4178495;28;20080;-62
2022/10/31 08:09:48;;;;;;;23.55;14.20;;;;;;;17.45;50.60;95281.88;4181703;28;20055;-61
2022/10/31 08:11:50;;;;;;;22.27;14.38;;;;;;;17.33;50.80;95276.22;4179222;28;20144;-62
2022/10/31 08:13:52;;;;;;;23.52;14.32;;;;;;;17.26;50.78;95275.34;4179214;28;20068;-62
2022/10/31 08:15:54;;;;;;;24.23;13.95;;;;;;;17.14;51.00;95270.53;4180732;28;20049;-60
2022/10/31 08:17:56;;;;;;;23.75;13.20;;;;;;;17.09;51.47;95277.38;4171023;28;20464;-61
2022/10/31 08:19:58;;;;;;;19.50;13.25;;;;;;;17.24;51.06;95274.72;4177745;28;20080;-59
2022/10/31 08:22:00;;;;;;;24.40;13.02;;;;;;;17.38;50.87;95277.31;4181002;28;20382;-59
2022/10/31 08:24:02;;;;;;;23.35;14.20;;;;;;;17.25;51.04;95279.81;4175020;28;20484;-58
2022/10/31 08:26:05;;;;;;;19.27;12.80;;;;;;;17.37;50.59;95278.31;4181543;28;20509;-61
2022/10/31 08:28:09;;;;;;;25.70;13.50;;;;;;;17.38;51.07;95281.81;4168807;28;20076;-60
2022/10/31 08:30:11;;;;;;;18.25;12.57;;;;;;;17.69;50.53;95278.03;4172659;28;20045;-59
2022/10/31 08:32:13;;;;;;;25.13;14.07;;;;;;;17.87;49.97;95281.06;4174783;28;20052;-60
2022/10/31 08:34:15;;;;;;;20.27;13.27;;;;;;;17.85;50.03;95271.69;4179501;28;20412;-62
2022/10/31 08:36:16;;;;;;;20.02;13.43;;;;;;;17.97;49.74;95278.13;4168784;28;20124;-62
2022/10/31 08:38:18;;;;;;;25.08;14.75;;;;;;;18.21;49.53;95282.19;4180589;28;20123;-60
2022/10/31 08:40:19;;;;;;;20.73;13.65;;;;;;;18.40;49.17;95280.72;4172028;28;20104;-61
2022/10/31 08:42:21;;;;;;;26.83;16.23;;;;;;;18.58;48.34;95280.19;4168126;28;20072;-61
2022/10/31 08:44:23;;;;;;;21.48;11.95;;;;;;;18.38;48.75;95280.06;4175118;28;20060;-61
2022/10/31 08:46:24;;;;;;;23.75;11.95;;;;;;;18.49;48.71;95270.75;4167765;28;20057;-61
2022/10/31 08:48:26;;;;;;;20.08;13.77;;;;;;;18.45;48.65;95274.81;4181034;28;20048;-59
2022/10/31 08:50:29;;;;;;;18.58;12.45;;;;;;;18.56;48.45;95280.41;4173982;28;20080;-61
2022/10/31 08:52:30;;;;;;;17.23;10.75;;;;;;;18.72;48.01;95278.47;4174884;28;20431;-61
2022/10/31 08:54:52;;;;;;;18.10;11.07;;;;;;;18.17;49.21;95284.41;4178247;28;20053;-59
2022/10/31 08:56:55;;;;;;;17.63;11.77;;;;;;;18.11;49.31;95276.38;4171071;28;20136;-60
2022/10/31 08:58:57;;;;;;;18.08;11.65;;;;;;;18.01;49.99;95269.59;4171908;28;20052;-59
2022/10/31 09:00:59;;;;;;;22.48;11.50;;;;;;;18.32;49.44;95275.53;4176990;28;20472;-60
2022/10/31 09:03:04;;;;;;;20.03;11.43;;;;;;;18.69;48.76;95277.03;4165158;28;20064;-61
2022/10/31 09:05:05;;;;;;;23.20;11.93;;;;;;;18.41;49.15;95280.53;4170819;28;20152;-61
2022/10/31 09:07:07;;;;;;;19.83;11.30;;;;;;;18.59;48.81;95280.03;4180266;28;20076;-61
2022/10/31 09:09:21;;;;;;;23.75;11.32;;;;;;;18.69;48.53;95281.50;4180255;28;20052;-61
2022/10/31 09:11:23;;;;;;;25.25;10.82;;;;;;;18.74;48.50;95279.09;4181062;28;20041;-59
2022/10/31 09:13:25;;;;;;;15.00;9.13;;;;;;;19.08;48.17;95283.59;4181016;28;20118;-59
2022/10/31 09:15:28;;;;;;;18.30;9.15;;;;;;;18.92;47.94;95278.59;4179968;28;20144;-63
2022/10/31 09:17:30;;;;;;;19.15;9.07;;;;;;;18.93;47.91;95269.59;4180278;28;20533;-62
2022/10/31 09:19:32;;;;;;;20.90;8.57;;;;;;;18.96;47.66;95272.69;4175833;28;20045;-61
2022/10/31 09:21:33;;;;;;;14.55;8.40;;;;;;;18.97;47.98;95271.69;4171861;28;20049;-63
2022/10/31 09:23:35;;;;;;;15.13;9.07;;;;;;;19.02;48.05;95271.09;4168728;28;20049;-61
2022/10/31 09:25:37;;;;;;;11.85;8.40;;;;;;;18.77;48.77;95268.88;4179382;28;20056;-59
2022/10/31 09:27:39;;;;;;;15.88;9.60;;;;;;;18.66;49.29;95268.63;4180591;28;20084;-60
2022/10/31 09:29:41;;;;;;;16.95;10.50;;;;;;;18.91;48.99;95258.41;4180771;28;20423;-61
2022/10/31 09:31:42;;;;;;;16.23;9.93;;;;;;;19.07;48.06;95268.66;4179923;28;20083;-58
2022/10/31 09:33:45;;;;;;;20.58;10.50;;;;;;;19.07;48.25;95265.19;4177667;28;20601;-61
2022/10/31 09:35:47;;;;;;;15.18;9.50;;;;;;;19.21;47.88;95257.09;4169776;28;20139;-62
2022/10/31 09:38:10;;;;;;;20.10;9.98;;;;;;;19.45;47.54;95260.22;4180691;28;20777;-61